sensor_id;sensor_type;location;lat;lon;timestamp;P1;durP1;ratioP1;P2;durP2;ratioP2
6926;SDS011;3503;50.07605000;8.86719200;2023-06-14T00:00:57;9.30;;;5.23;;
6926;SDS011;3503;50.07605000;8.86719200;2023-06-14T00:15:59;10.93;;;5.80;;
6926;SDS011;3503;50.07605000;8.86719200;2023-06-14T00:31:02;10.47;;;5.33;;
6926;SDS011;3503;50.07605000;8.86719200;2023-06-14T00:46:05;13.17;;;5.50;;
6926;SDS011;3503;50.07605000;8.86719200;2023-06-14T01:01:08;7.50;;;4.97;;
6926;SDS011;3503;50.07605000;8.86719200;2023-06-14T01:16:11;8.90;;;4.10;;
6926;SDS011;3503;50.07605000;8.86719200;2023-06-14T01:31:17;7.20;;;4.57;;
6926;SDS011;3503;50.07605000;8.86719200;2023-06-14T01:46:21;13.23;;;6.20;;
6926;SDS011;3503;50.07605000;8.86719200;2023-06-14T02:01:24;10.57;;;4.73;;
6926;SDS011;3503;50.07605000;8.86719200;2023-06-14T02:16:27;16.03;;;4.50;;
6926;SDS011;3503;50.07605000;8.86719200;2023-06-14T02:31:31;9.87;;;4.93;;
6926;SDS011;3503;50.07605000;8.86719200;2023-06-14T02:46:34;13.53;;;4.63;;
6926;SDS011;3503;50.07605000;8.86719200;2023-06-14T03:01:37;14.57;;;5.07;;
6926;SDS011;3503;50.07605000;8.86719200;2023-06-14T03:16:42;5.90;;;3.20;;
6926;SDS011;3503;50.07605000;8.86719200;2023-06-14T03:31:57;9.43;;;4.40;;
6926;SDS011;3503;50.07605000;8.86719200;2023-06-14T03:47:00;6.30;;;3.40;;
6926;SDS011;3503;50.07605000;8.86719200;2023-06-14T04:02:03;12.73;;;4.77;;
6926;SDS011;3503;50.07605000;8.86719200;2023-06-14T04:17:06;11.10;;;4.23;;
6926;SDS011;3503;50.07605000;8.86719200;2023-06-14T04:32:09;8.00;;;4.40;;
6926;SDS011;3503;50.07605000;8.86719200;2023-06-14T04:47:15;8.93;;;4.30;;
6926;SDS011;3503;50.07605000;8.86719200;2023-06-14T05:02:18;15.97;;;8.60;;
6926;SDS011;3503;50.07605000;8.86719200;2023-06-14T05:17:21;8.90;;;4.87;;
6926;SDS011;3503;50.07605000;8.86719200;2023-06-14T05:32:23;7.93;;;4.03;;
6926;SDS011;3503;50.07605000;8.86719200;2023-06-14T05:47:26;8.60;;;4.53;;
6926;SDS011;3503;50.07605000;8.86719200;2023-06-14T06:02:30;7.70;;;4.17;;
6926;SDS011;3503;50.07605000;8.86719200;2023-06-14T06:17:32;11.00;;;3.70;;
6926;SDS011;3503;50.07605000;8.86719200;2023-06-14T06:32:35;15.57;;;3.73;;
6926;SDS011;3503;50.07605000;8.86719200;2023-06-14T06:47:38;5.50;;;3.07;;
6926;SDS011;3503;50.07605000;8.86719200;2023-06-14T07:02:41;5.27;;;2.67;;
6926;SDS011;3503;50.07605000;8.86719200;2023-06-14T07:17:44;5.83;;;2.67;;
6926;SDS011;3503;50.07605000;8.86719200;2023-06-14T07:32:47;4.10;;;2.50;;
6926;SDS011;3503;50.07605000;8.86719200;2023-06-14T07:47:50;6.93;;;2.00;;
6926;SDS011;3503;50.07605000;8.86719200;2023-06-14T08:02:53;5.73;;;2.40;;
6926;SDS011;3503;50.07605000;8.86719200;2023-06-14T08:18:00;4.03;;;2.20;;
6926;SDS011;3503;50.07605000;8.86719200;2023-06-14T08:33:03;2.90;;;1.47;;
6926;SDS011;3503;50.07605000;8.86719200;2023-06-14T08:48:07;2.73;;;1.87;;
6926;SDS011;3503;50.07605000;8.86719200;2023-06-14T09:03:10;3.63;;;1.40;;
6926;SDS011;3503;50.07605000;8.86719200;2023-06-14T09:18:14;3.60;;;1.73;;
6926;SDS011;3503;50.07605000;8.86719200;2023-06-14T09:33:18;4.63;;;2.00;;
6926;SDS011;3503;50.07605000;8.86719200;2023-06-14T09:48:21;4.80;;;1.93;;
6926;SDS011;3503;50.07605000;8.86719200;2023-06-14T10:03:25;3.53;;;2.00;;
6926;SDS011;3503;50.07605000;8.86719200;2023-06-14T10:18:33;6.03;;;1.30;;
6926;SDS011;3503;50.07605000;8.86719200;2023-06-14T10:33:47;3.77;;;1.87;;
6926;SDS011;3503;50.07605000;8.86719200;2023-06-14T10:48:51;6.07;;;1.50;;
6926;SDS011;3503;50.07605000;8.86719200;2023-06-14T11:04:05;3.67;;;1.50;;
6926;SDS011;3503;50.07605000;8.86719200;2023-06-14T11:19:09;2.77;;;2.07;;
6926;SDS011;3503;50.07605000;8.86719200;2023-06-14T11:34:12;3.10;;;2.07;;
6926;SDS011;3503;50.07605000;8.86719200;2023-06-14T11:49:16;4.17;;;2.47;;
6926;SDS011;3503;50.07605000;8.86719200;2023-06-14T12:04:24;3.77;;;2.30;;
6926;SDS011;3503;50.07605000;8.86719200;2023-06-14T12:19:29;4.70;;;2.50;;
6926;SDS011;3503;50.07605000;8.86719200;2023-06-14T12:34:33;4.47;;;2.47;;
6926;SDS011;3503;50.07605000;8.86719200;2023-06-14T12:49:37;6.50;;;2.20;;
6926;SDS011;3503;50.07605000;8.86719200;2023-06-14T13:04:40;12.07;;;2.60;;
6926;SDS011;3503;50.07605000;8.86719200;2023-06-14T13:19:42;9.07;;;3.50;;
6926;SDS011;3503;50.07605000;8.86719200;2023-06-14T13:34:45;5.20;;;1.87;;
6926;SDS011;3503;50.07605000;8.86719200;2023-06-14T13:49:48;3.37;;;1.73;;
6926;SDS011;3503;50.07605000;8.86719200;2023-06-14T14:04:51;3.17;;;1.40;;
6926;SDS011;3503;50.07605000;8.86719200;2023-06-14T14:19:54;9.17;;;5.93;;
6926;SDS011;3503;50.07605000;8.86719200;2023-06-14T14:34:57;3.47;;;1.77;;
6926;SDS011;3503;50.07605000;8.86719200;2023-06-14T14:50:01;3.33;;;1.53;;
6926;SDS011;3503;50.07605000;8.86719200;2023-06-14T15:05:04;3.03;;;1.80;;
6926;SDS011;3503;50.07605000;8.86719200;2023-06-14T15:20:08;2.47;;;1.60;;
6926;SDS011;3503;50.07605000;8.86719200;2023-06-14T15:35:14;3.50;;;1.93;;
6926;SDS011;3503;50.07605000;8.86719200;2023-06-14T15:50:18;5.60;;;2.47;;
6926;SDS011;3503;50.07605000;8.86719200;2023-06-14T16:05:22;3.47;;;2.37;;
6926;SDS011;3503;50.07605000;8.86719200;2023-06-14T16:20:25;3.00;;;1.83;;
6926;SDS011;3503;50.07605000;8.86719200;2023-06-14T16:35:28;4.27;;;1.80;;
6926;SDS011;3503;50.07605000;8.86719200;2023-06-14T16:50:32;4.20;;;2.43;;
6926;SDS011;3503;50.07605000;8.86719200;2023-06-14T17:05:35;3.43;;;2.13;;
6926;SDS011;3503;50.07605000;8.86719200;2023-06-14T17:20:38;5.90;;;2.33;;
6926;SDS011;3503;50.07605000;8.86719200;2023-06-14T17:35:41;2.80;;;1.50;;
6926;SDS011;3503;50.07605000;8.86719200;2023-06-14T17:50:44;3.40;;;1.93;;
6926;SDS011;3503;50.07605000;8.86719200;2023-06-14T18:05:47;6.93;;;2.97;;
6926;SDS011;3503;50.07605000;8.86719200;2023-06-14T18:20:50;9.10;;;6.50;;
6926;SDS011;3503;50.07605000;8.86719200;2023-06-14T18:35:52;3.70;;;2.40;;
6926;SDS011;3503;50.07605000;8.86719200;2023-06-14T18:50:55;3.70;;;2.57;;
6926;SDS011;3503;50.07605000;8.86719200;2023-06-14T19:05:58;5.40;;;2.87;;
6926;SDS011;3503;50.07605000;8.86719200;2023-06-14T19:21:01;14.00;;;3.93;;
6926;SDS011;3503;50.07605000;8.86719200;2023-06-14T19:36:04;4.27;;;2.37;;
6926;SDS011;3503;50.07605000;8.86719200;2023-06-14T19:51:07;4.33;;;3.20;;
6926;SDS011;3503;50.07605000;8.86719200;2023-06-14T20:06:10;3.27;;;2.43;;
6926;SDS011;3503;50.07605000;8.86719200;2023-06-14T20:21:14;4.23;;;2.63;;
6926;SDS011;3503;50.07605000;8.86719200;2023-06-14T20:36:17;5.17;;;2.63;;
6926;SDS011;3503;50.07605000;8.86719200;2023-06-14T20:51:20;3.70;;;2.27;;
6926;SDS011;3503;50.07605000;8.86719200;2023-06-14T21:06:23;3.67;;;2.70;;
6926;SDS011;3503;50.07605000;8.86719200;2023-06-14T21:21:27;4.80;;;2.30;;
6926;SDS011;3503;50.07605000;8.86719200;2023-06-14T21:36:30;5.87;;;2.80;;
6926;SDS011;3503;50.07605000;8.86719200;2023-06-14T21:51:33;6.30;;;2.50;;
6926;SDS011;3503;50.07605000;8.86719200;2023-06-14T22:06:36;5.03;;;2.00;;
6926;SDS011;3503;50.07605000;8.86719200;2023-06-14T22:21:45;7.13;;;2.17;;
6926;SDS011;3503;50.07605000;8.86719200;2023-06-14T22:36:52;3.43;;;2.20;;
6926;SDS011;3503;50.07605000;8.86719200;2023-06-14T22:51:55;3.43;;;2.00;;
6926;SDS011;3503;50.07605000;8.86719200;2023-06-14T23:07:02;7.47;;;1.53;;
6926;SDS011;3503;50.07605000;8.86719200;2023-06-14T23:22:05;6.37;;;2.60;;
6926;SDS011;3503;50.07605000;8.86719200;2023-06-14T23:37:13;4.13;;;2.80;;
6926;SDS011;3503;50.07605000;8.86719200;2023-06-14T23:52:16;4.93;;;2.67;;
